Time;durP1;ratioP1;P1;durP2;ratioP2;P2;SDS_P1;SDS_P2;PMS_P1;PMS_P2;Temp;Humidity;BMP_temperature;BMP_pressure;BME280_temperature;BME280_humidity;BME280_pressure;Samples;Min_cycle;Max_cycle;Signal;HPM_P1;HPM_P2
2023/07/11 00:00:07;;;;;;;11.40;8.30;;;;;;;21.16;68.77;100249.66;5084867;28;20036;-18
2023/07/11 00:02:33;;;;;;;13.25;8.38;;;;;;;21.27;68.07;100251.19;5084352;28;20028;-17
2023/07/11 00:04:59;;;;;;;11.73;7.88;;;;;;;21.27;68.19;100256.59;5084170;28;20028;-19
2023/07/11 00:07:27;;;;;;;14.27;9.05;;;;;;;21.38;67.36;100238.31;5084467;28;20020;-17
2023/07/11 00:09:53;;;;;;;;;;;;;;;21.35;67.19;100241.63;5083840;28;20024;-18
2023/07/11 00:12:19;;;;;;;11.75;8.10;;;;;;;21.35;66.87;100249.75;5084765;28;20007;-18
2023/07/11 00:14:45;;;;;;;11.45;7.78;;;;;;;20.80;69.65;100236.41;5083967;28;20085;-17
2023/07/11 00:17:11;;;;;;;12.23;7.85;;;;;;;20.80;69.97;100238.28;5084525;28;20016;-17
2023/07/11 00:20:13;;;;;;;10.15;7.65;;;;;;;20.58;70.06;100223.28;5084360;28;20024;-17
2023/07/11 00:22:40;;;;;;;13.30;8.05;;;;;;;20.51;70.86;100235.47;5080973;28;20069;-18
2023/07/11 00:25:06;;;;;;;13.15;8.40;;;;;;;20.42;70.86;100238.78;5088064;28;20032;-18
2023/07/11 00:27:32;;;;;;;12.27;8.60;;;;;;;20.60;70.51;100241.97;5087854;28;20024;-18
2023/07/11 00:29:57;;;;;;;13.30;8.38;;;;;;;20.65;69.98;100231.06;5087919;28;20510;-17
2023/07/11 00:32:23;;;;;;;10.82;7.32;;;;;;;20.38;72.43;100235.03;5087816;28;20060;-17
2023/07/11 00:34:48;;;;;;;11.57;7.65;;;;;;;20.38;71.98;100217.97;5087942;28;20016;-19
2023/07/11 00:37:15;;;;;;;13.80;9.27;;;;;;;20.62;71.13;100226.25;5087777;28;20099;-17
2023/07/11 00:39:40;;;;;;;14.35;9.25;;;;;;;20.38;72.08;100232.31;5087697;28;20554;-17
2023/07/11 00:42:07;;;;;;;13.77;9.15;;;;;;;20.53;70.98;100230.59;5087848;28;20019;-18
2023/07/11 00:45:26;;;;;;;13.87;9.10;;;;;;;20.36;71.50;100231.78;5087867;28;20032;-18
2023/07/11 00:47:52;;;;;;;12.85;8.48;;;;;;;20.61;70.68;100232.75;4985899;28;20065;-17
2023/07/11 00:50:17;;;;;;;13.15;8.85;;;;;;;20.40;71.62;100223.91;5078779;28;20155;-19
2023/07/11 00:52:43;;;;;;;15.77;8.93;;;;;;;20.27;72.35;100228.06;5087328;28;20023;-17
2023/07/11 00:55:13;;;;;;;14.00;8.90;;;;;;;20.23;73.04;100227.78;5087642;28;20024;-18
2023/07/11 00:57:42;;;;;;;10.63;8.23;;;;;;;20.58;70.93;100223.28;5087047;28;20717;-17
2023/07/11 01:00:09;;;;;;;13.70;8.50;;;;;;;20.33;71.04;100229.66;5087388;28;20028;-20
2023/07/11 01:02:35;;;;;;;17.90;9.40;;;;;;;20.52;70.05;100227.09;5087476;28;20089;-19
2023/07/11 01:05:03;;;;;;;13.32;8.82;;;;;;;20.40;70.98;100238.25;5087278;28;20039;-18
2023/07/11 01:07:35;;;;;;;13.05;8.80;;;;;;;20.46;70.21;100225.50;5087244;28;20024;-17
2023/07/11 01:10:03;;;;;;;15.45;8.90;;;;;;;20.32;71.02;100233.44;5086975;28;20028;-18
2023/07/11 01:12:28;;;;;;;14.98;8.95;;;;;;;20.04;72.63;100208.69;5086937;28;20069;-17
2023/07/11 01:14:54;;;;;;;13.45;8.82;;;;;;;19.90;73.29;100210.38;5087295;28;20020;-18
2023/07/11 01:17:27;;;;;;;15.48;8.38;;;;;;;19.71;75.23;100212.06;5086841;28;20024;-17
2023/07/11 01:19:56;;;;;;;11.43;7.78;;;;;;;19.85;74.63;100213.09;5087190;28;20043;-18
2023/07/11 01:22:26;;;;;;;12.15;8.60;;;;;;;19.80;74.28;100215.81;5086352;28;20035;-17
2023/07/11 01:24:52;;;;;;;11.70;9.10;;;;;;;19.69;74.72;100212.28;5087389;28;20024;-18
2023/07/11 01:27:19;;;;;;;13.23;8.75;;;;;;;19.63;73.97;100202.56;5086798;28;20111;-18
2023/07/11 01:29:47;;;;;;;14.02;9.15;;;;;;;19.90;72.55;100202.25;5046546;28;20041;-17
2023/07/11 01:32:12;;;;;;;18.73;11.93;;;;;;;20.02;71.12;100207.31;5042564;28;20037;-17
2023/07/11 01:34:39;;;;;;;15.40;10.85;;;;;;;20.02;70.60;100194.63;5045594;28;20017;-23
2023/07/11 01:37:04;;;;;;;14.35;10.18;;;;;;;20.27;70.05;100209.91;5046537;28;20037;-17
2023/07/11 01:39:30;;;;;;;13.48;9.93;;;;;;;19.97;71.02;100208.16;5046343;28;20051;-17
2023/07/11 01:41:55;;;;;;;14.25;10.15;;;;;;;19.76;72.82;100201.22;5046458;28;20029;-17
2023/07/11 01:44:24;;;;;;;13.43;9.18;;;;;;;19.68;73.49;100202.56;5045937;28;20451;-17
2023/07/11 01:46:49;;;;;;;15.35;8.98;;;;;;;19.45;73.96;100203.97;5046298;28;20029;-18
2023/07/11 01:49:15;;;;;;;12.32;8.07;;;;;;;19.54;74.10;100205.03;5046237;28;20032;-18
2023/07/11 01:51:44;;;;;;;12.45;8.18;;;;;;;19.94;71.87;100207.91;5046364;28;20037;-18
2023/07/11 01:54:10;;;;;;;16.42;8.35;;;;;;;19.92;70.88;100207.38;5045868;28;20048;-18
2023/07/11 01:56:37;;;;;;;14.13;8.23;;;;;;;19.78;71.01;100196.34;5046142;28;20032;-19
2023/07/11 01:59:03;;;;;;;13.80;8.13;;;;;;;19.35;74.49;100217.53;5045800;28;20036;-18
2023/07/11 02:01:29;;;;;;;13.52;8.18;;;;;;;19.18;75.36;100218.63;5046062;28;20033;-18
2023/07/11 02:03:54;;;;;;;10.18;7.20;;;;;;;19.12;75.78;100224.31;5045912;28;20079;-17
2023/07/11 02:06:20;;;;;;;11.10;7.45;;;;;;;19.12;75.63;100225.13;5045375;28;20017;-18
2023/07/11 02:08:46;;;;;;;9.60;6.85;;;;;;;19.05;75.93;100228.09;5045926;28;20035;-19
2023/07/11 02:11:12;;;;;;;9.27;6.53;;;;;;;19.22;75.39;100225.09;5045486;28;20090;-18
2023/07/11 02:13:40;;;;;;;8.10;5.90;;;;;;;19.34;74.65;100227.53;5046157;28;20841;-17
2023/07/11 02:16:05;;;;;;;8.93;6.22;;;;;;;19.37;74.27;100215.34;5045773;28;20025;-19
2023/07/11 02:18:31;;;;;;;11.85;6.43;;;;;;;19.48;73.45;100222.38;5045482;28;20095;-17
2023/07/11 02:20:56;;;;;;;12.50;7.13;;;;;;;19.36;74.63;100224.56;5045664;28;20059;-18
2023/07/11 02:23:22;;;;;;;8.93;6.35;;;;;;;19.11;75.35;100222.72;5045599;28;20086;-18
2023/07/11 02:25:51;;;;;;;8.40;6.13;;;;;;;19.24;74.01;100233.75;5045406;28;20067;-18
2023/07/11 02:28:17;;;;;;;10.57;6.85;;;;;;;19.39;73.89;100229.41;5061594;28;20071;-17
2023/07/11 02:30:42;;;;;;;10.73;7.07;;;;;;;19.36;73.77;100228.06;5085500;28;20030;-17
2023/07/11 02:33:08;;;;;;;10.07;6.50;;;;;;;19.27;74.60;100227.03;5085634;28;20024;-17
2023/07/11 02:35:35;;;;;;;9.85;6.57;;;;;;;19.58;73.07;100233.16;5085382;28;20020;-17
2023/07/11 02:38:00;;;;;;;10.32;7.20;;;;;;;19.41;73.78;100238.06;5085344;28;20408;-18
2023/07/11 02:40:26;;;;;;;11.05;6.93;;;;;;;19.37;74.36;100226.16;5085291;28;20028;-18
2023/07/11 02:42:51;;;;;;;13.70;7.28;;;;;;;19.56;73.07;100232.63;5084984;28;20036;-18
2023/07/11 02:45:20;;;;;;;11.15;7.65;;;;;;;19.84;72.20;100233.13;5085037;28;20039;-18
2023/07/11 02:47:45;;;;;;;15.13;7.93;;;;;;;19.79;71.47;100223.13;5084169;28;20024;-17
2023/07/11 02:50:11;;;;;;;12.15;8.45;;;;;;;19.71;71.83;100225.59;5085035;28;20028;-23
2023/07/11 02:52:36;;;;;;;13.07;8.23;;;;;;;19.65;72.21;100232.88;5085553;28;20040;-18
2023/07/11 02:55:01;;;;;;;20.48;10.75;;;;;;;19.71;71.44;100214.75;5084771;28;20081;-20
2023/07/11 02:57:30;;;;;;;24.80;13.18;;;;;;;19.51;71.61;100221.81;5085273;28;20401;-17
2023/07/11 02:59:55;;;;;;;23.80;12.50;;;;;;;19.34;73.11;100229.44;5084967;28;20055;-17
2023/07/11 03:02:23;;;;;;;17.67;11.02;;;;;;;19.43;72.74;100234.03;5084659;28;20107;-17
2023/07/11 03:04:58;;;;;;;;;;;;;;;;;;;;;
2023/07/11 03:07:24;;;;;;;20.65;13.55;;;;;;;18.96;75.66;100237.03;5081731;28;20500;-17
2023/07/11 03:09:52;;;;;;;26.50;16.60;;;;;;;18.33;79.21;100216.41;5084853;28;20031;-17
2023/07/11 03:12:18;;;;;;;15.80;10.43;;;;;;;18.42;79.60;100232.91;5084962;28;20024;-17
2023/07/11 03:14:43;;;;;;;14.18;10.02;;;;;;;18.73;78.42;100236.44;5084765;28;20035;-17
2023/07/11 03:17:09;;;;;;;17.55;8.93;;;;;;;18.84;77.39;100240.81;5085062;28;20020;-18
2023/07/11 03:19:36;;;;;;;12.05;9.30;;;;;;;18.49;79.34;100225.34;5084312;28;20040;-18
2023/07/11 03:22:02;;;;;;;13.00;8.75;;;;;;;18.87;77.50;100242.97;5084955;28;20033;-18
2023/07/11 03:24:27;;;;;;;11.25;8.85;;;;;;;19.14;75.99;100252.69;5084466;28;20031;-17
2023/07/11 03:26:52;;;;;;;13.95;9.02;;;;;;;19.20;76.68;100254.31;5084661;28;20030;-19
2023/07/11 03:29:18;;;;;;;13.07;8.30;;;;;;;19.11;76.99;100249.75;5084951;28;20051;-18
2023/07/11 03:31:43;;;;;;;11.27;8.65;;;;;;;19.18;77.44;100251.06;5084427;28;20401;-18
2023/07/11 03:34:11;;;;;;;13.77;8.60;;;;;;;19.07;77.89;100254.88;5084760;28;20028;-19
2023/07/11 03:36:37;;;;;;;11.25;8.32;;;;;;;19.02;78.94;100246.75;5085227;28;20527;-17
2023/07/11 03:39:03;;;;;;;13.15;8.05;;;;;;;19.20;77.94;100250.81;5083218;28;20040;-17
2023/07/11 03:41:29;;;;;;;14.02;8.05;;;;;;;19.40;76.64;100248.06;5084871;28;20080;-18
2023/07/11 03:43:54;;;;;;;12.27;8.15;;;;;;;19.13;78.98;100240.28;5083946;28;20111;-19
2023/07/11 03:46:20;;;;;;;11.80;8.48;;;;;;;19.03;79.86;100243.78;5084409;28;20028;-17
2023/07/11 03:48:45;;;;;;;10.02;7.68;;;;;;;19.16;79.23;100247.81;5084166;28;20027;-17
2023/07/11 03:51:11;;;;;;;11.15;7.90;;;;;;;19.39;77.44;100256.44;5084341;28;20412;-19
2023/07/11 03:53:36;;;;;;;10.52;7.80;;;;;;;19.07;79.93;100239.47;5084510;28;20073;-18
2023/07/11 03:56:02;;;;;;;11.45;8.35;;;;;;;19.24;78.31;100244.56;5084374;28;20047;-19
2023/07/11 03:58:30;;;;;;;12.38;8.38;;;;;;;19.35;78.23;100244.56;5085379;28;20753;-19
2023/07/11 04:00:55;;;;;;;11.48;8.30;;;;;;;19.12;80.14;100246.75;5088477;28;20039;-17
2023/07/11 04:03:20;;;;;;;11.80;7.93;;;;;;;19.42;78.99;100228.88;5088000;28;20032;-18
2023/07/11 04:05:46;;;;;;;12.57;7.80;;;;;;;19.37;80.02;100250.50;5088004;28;20028;-17
2023/07/11 04:08:11;;;;;;;13.60;7.90;;;;;;;19.59;78.90;100256.41;5088540;28;20059;-22
2023/07/11 04:10:37;;;;;;;16.02;9.32;;;;;;;19.78;78.26;100269.41;5088379;28;20023;-17
2023/07/11 04:13:03;;;;;;;14.85;7.80;;;;;;;19.83;75.71;100269.38;5088290;28;20020;-18
2023/07/11 04:15:28;;;;;;;13.88;6.85;;;;;;;20.29;73.57;100258.38;5087961;28;20028;-18
2023/07/11 04:17:54;;;;;;;13.15;7.10;;;;;;;20.32;74.00;100262.41;5088123;28;20477;-17
2023/07/11 04:20:19;;;;;;;11.63;6.43;;;;;;;20.53;73.02;100268.53;5087801;28;20529;-18
2023/07/11 04:22:45;;;;;;;12.38;6.95;;;;;;;20.74;72.78;100259.22;5087394;28;20416;-17
2023/07/11 04:25:10;;;;;;;10.98;6.70;;;;;;;20.92;70.78;100255.00;5088305;28;20043;-17
2023/07/11 04:27:36;;;;;;;9.85;6.60;;;;;;;21.19;69.41;100265.38;5087518;28;20077;-17
2023/07/11 04:30:02;;;;;;;10.38;7.03;;;;;;;21.23;68.69;100255.56;5088000;28;20077;-17
2023/07/11 04:32:28;;;;;;;9.95;7.03;;;;;;;21.30;68.79;100262.56;5087674;28;20012;-19
2023/07/11 04:34:54;;;;;;;9.50;6.43;;;;;;;21.37;68.27;100263.03;5087772;28;20560;-18
2023/07/11 04:37:19;;;;;;;9.73;6.50;;;;;;;21.56;66.81;100265.88;5087992;28;20078;-18
2023/07/11 04:39:45;;;;;;;12.05;6.65;;;;;;;21.84;65.60;100259.56;5087726;28;20023;-18
2023/07/11 04:42:10;;;;;;;9.68;6.70;;;;;;;21.88;65.77;100265.22;5087979;28;20028;-19
2023/07/11 04:44:38;;;;;;;11.85;6.35;;;;;;;21.91;65.27;100261.94;5087357;28;20032;-17
2023/07/11 04:47:04;;;;;;;11.32;6.82;;;;;;;21.97;65.42;100268.94;5087328;28;20080;-17
2023/07/11 04:49:29;;;;;;;12.55;7.10;;;;;;;21.99;66.89;100272.16;5087715;28;20036;-17
2023/07/11 04:51:55;;;;;;;11.32;6.45;;;;;;;22.05;67.38;100268.28;5087085;28;20028;-18
2023/07/11 04:54:21;;;;;;;10.00;7.25;;;;;;;22.17;64.59;100261.59;5087542;28;20748;-18
2023/07/11 04:56:54;;;;;;;10.55;7.03;;;;;;;22.38;63.50;100279.28;5087679;28;20059;-17
2023/07/11 04:59:20;;;;;;;11.02;7.00;;;;;;;22.48;62.54;100283.00;5087166;28;20048;-17
2023/07/11 05:01:45;;;;;;;9.75;7.20;;;;;;;22.48;64.46;100283.78;5087360;28;20146;-17
2023/07/11 05:04:10;;;;;;;11.00;7.65;;;;;;;22.61;63.87;100280.31;5087197;28;20467;-18
2023/07/11 05:06:36;;;;;;;12.02;7.22;;;;;;;22.64;62.25;100274.31;5087115;28;20024;-19
2023/07/11 05:09:01;;;;;;;10.65;6.88;;;;;;;22.73;61.52;100269.00;5087314;28;20035;-17
2023/07/11 05:11:27;;;;;;;8.55;6.30;;;;;;;22.81;62.70;100281.94;5086219;28;20055;-17
2023/07/11 05:13:55;;;;;;;10.18;7.00;;;;;;;22.91;61.98;100283.69;5086997;28;20020;-17
2023/07/11 05:16:27;;;;;;;13.65;6.82;;;;;;;23.09;61.25;100286.69;5086970;28;20031;-17
2023/07/11 05:18:52;;;;;;;10.82;6.65;;;;;;;23.17;61.40;100295.00;5087017;28;20024;-17
2023/07/11 05:21:19;;;;;;;11.00;6.82;;;;;;;23.22;60.18;100275.88;5086177;28;20093;-18
2023/07/11 05:23:44;;;;;;;8.52;6.20;;;;;;;23.34;59.78;100288.19;5086302;28;20488;-19
2023/07/11 05:26:11;;;;;;;8.77;6.00;;;;;;;23.50;58.99;100286.81;5086612;28;20028;-17
2023/07/11 05:28:36;;;;;;;8.30;6.22;;;;;;;23.55;59.83;100283.19;5086821;28;20055;-17
2023/07/11 05:31:04;;;;;;;10.90;6.70;;;;;;;23.58;58.27;100269.78;5084473;28;20024;-18
2023/07/11 05:33:30;;;;;;;10.52;6.35;;;;;;;23.63;58.72;100291.47;5066321;28;20541;-18
2023/07/11 05:36:48;;;;;;;12.85;6.82;;;;;;;23.81;58.41;100292.53;5068146;28;20043;-18
2023/07/11 05:38:58;;;;;;;9.98;6.50;;;;;;;24.01;58.54;100288.59;5073141;28;20052;-18
2023/07/11 05:41:23;;;;;;;11.55;7.00;;;;;;;24.05;60.31;100292.31;5086410;28;20556;-17
2023/07/11 05:43:48;;;;;;;8.23;6.35;;;;;;;24.22;58.54;100286.25;5086561;28;20040;-16
2023/07/11 05:46:16;;;;;;;10.65;7.15;;;;;;;24.18;59.39;100287.16;5086641;28;20157;-23
2023/07/11 05:48:47;;;;;;;14.48;9.35;;;;;;;24.21;58.93;100275.66;5086437;28;20568;-17
2023/07/11 05:51:17;;;;;;;11.13;6.78;;;;;;;24.27;57.05;100288.06;5086618;28;20020;-17
2023/07/11 05:53:44;;;;;;;8.93;6.82;;;;;;;24.42;57.55;100279.56;5086219;28;20063;-21
2023/07/11 05:56:10;;;;;;;11.80;7.90;;;;;;;24.66;57.50;100289.41;5086420;28;20509;-18
2023/07/11 05:58:35;;;;;;;12.55;8.10;;;;;;;24.83;57.18;100294.22;5086231;28;20023;-18
2023/07/11 06:01:02;;;;;;;9.73;6.30;;;;;;;25.04;56.57;100275.41;5086021;28;20386;-18
2023/07/11 06:03:32;;;;;;;9.98;6.30;;;;;;;25.00;55.96;100282.63;5085989;28;20048;-18
2023/07/11 06:06:02;;;;;;;11.43;6.38;;;;;;;25.14;55.60;100274.38;5085783;28;20039;-21
2023/07/11 06:08:31;;;;;;;9.85;6.22;;;;;;;25.39;56.42;100278.38;5080353;28;20111;-18
2023/07/11 06:11:00;;;;;;;9.50;6.35;;;;;;;25.56;55.71;100283.94;5066179;28;20063;-17
2023/07/11 06:13:29;;;;;;;10.77;6.20;;;;;;;25.79;54.41;100281.16;5065575;28;20128;-17
2023/07/11 06:16:05;;;;;;;8.05;5.90;;;;;;;26.04;53.36;100266.78;5084635;28;20125;-18
2023/07/11 06:18:34;;;;;;;8.57;6.40;;;;;;;26.35;52.58;100279.53;5085487;28;20024;-20
2023/07/11 06:21:00;;;;;;;10.98;6.00;;;;;;;26.56;50.44;100277.00;5085780;28;20085;-18
2023/07/11 06:23:25;;;;;;;8.77;5.50;;;;;;;26.70;48.60;100279.59;5085895;28;20447;-18
2023/07/11 06:25:51;;;;;;;9.73;6.03;;;;;;;26.76;48.95;100272.81;5085336;28;20768;-18
2023/07/11 06:28:19;;;;;;;10.57;6.57;;;;;;;26.76;48.44;100270.09;5076988;28;20745;-18
2023/07/11 06:30:45;;;;;;;11.48;6.47;;;;;;;26.94;49.04;100265.41;5064744;28;20047;-18
2023/07/11 06:33:19;;;;;;;10.10;5.88;;;;;;;27.09;49.57;100275.03;5064916;28;20024;-18
2023/07/11 06:35:50;;;;;;;11.73;5.93;;;;;;;27.27;47.06;100272.31;5065552;28;20036;-17
2023/07/11 06:38:18;;;;;;;9.32;6.50;;;;;;;27.44;47.33;100267.59;5079800;28;20162;-19
2023/07/11 06:40:53;;;;;;;9.40;6.07;;;;;;;27.57;46.66;100260.28;5083412;28;20425;-21
2023/07/11 06:43:20;;;;;;;9.52;5.93;;;;;;;27.73;44.77;100271.50;5069045;28;20062;-18
2023/07/11 06:45:49;;;;;;;7.18;5.30;;;;;;;27.94;45.51;100271.56;5065198;28;20033;-18
2023/07/11 06:48:17;;;;;;;7.65;5.30;;;;;;;28.14;44.09;100267.28;5064921;28;20028;-18
2023/07/11 06:50:47;;;;;;;8.52;5.60;;;;;;;28.07;44.57;100260.69;5064894;28;20039;-18
2023/07/11 06:53:12;;;;;;;7.35;5.75;;;;;;;28.40;41.54;100275.31;5065263;28;20115;-17
2023/07/11 06:55:47;;;;;;;7.82;5.40;;;;;;;28.42;43.11;100262.06;5065143;28;20058;-19
2023/07/11 06:58:15;;;;;;;7.22;4.88;;;;;;;28.42;40.51;100273.03;5065536;28;20024;-18
2023/07/11 07:00:41;;;;;;;8.32;5.00;;;;;;;28.60;40.88;100250.97;5064923;28;20035;-17
2023/07/11 07:03:13;;;;;;;8.68;5.82;;;;;;;28.72;40.41;100262.00;5071051;28;20750;-18
2023/07/11 07:05:49;;;;;;;8.55;5.07;;;;;;;28.80;39.57;100266.63;5084698;28;20036;-18
2023/07/11 07:08:15;;;;;;;6.65;4.68;;;;;;;28.89;40.00;100257.50;5084565;28;20104;-19
2023/07/11 07:10:41;;;;;;;8.38;5.18;;;;;;;29.11;39.68;100248.91;5083749;28;20119;-20
2023/07/11 07:13:06;;;;;;;7.13;5.13;;;;;;;29.27;39.56;100256.50;5078694;28;20089;-19
2023/07/11 07:15:31;;;;;;;9.63;5.30;;;;;;;29.14;39.18;100239.19;5082456;28;20040;-19
2023/07/11 07:17:57;;;;;;;8.00;4.90;;;;;;;29.35;39.13;100261.88;5084733;28;20069;-18
2023/07/11 07:20:24;;;;;;;8.20;5.45;;;;;;;29.54;38.53;100252.28;5084294;28;20043;-19
2023/07/11 07:22:50;;;;;;;;;;;;;;;29.80;37.87;100246.50;5084211;28;20027;-19
2023/07/11 07:25:15;;;;;;;6.77;5.23;;;;;;;29.93;36.84;100258.28;5084323;28;19916;-22
2023/07/11 07:27:40;;;;;;;8.05;5.28;;;;;;;29.94;36.98;100254.38;5085010;28;20044;-19
2023/07/11 07:30:08;;;;;;;7.95;4.88;;;;;;;29.97;37.46;100262.72;5085216;28;20027;-20
2023/07/11 07:32:33;;;;;;;;;;;;;;;30.15;38.55;100260.53;5083121;28;20028;-20
2023/07/11 07:34:59;;;;;;;8.48;4.68;;;;;;;30.34;35.74;100259.97;5080846;28;19925;-20
2023/07/11 07:37:24;;;;;;;7.18;5.13;;;;;;;30.44;36.37;100256.72;5084975;28;20024;-19
2023/07/11 07:39:50;;;;;;;7.00;4.97;;;;;;;30.60;35.31;100253.22;5084265;28;20020;-17
2023/07/11 07:42:16;;;;;;;9.15;5.60;;;;;;;30.66;34.84;100251.81;5083094;28;20024;-21
2023/07/11 07:44:42;;;;;;;9.52;5.50;;;;;;;30.65;34.93;100250.25;5084485;28;20114;-17
2023/07/11 07:47:07;;;;;;;7.85;4.95;;;;;;;30.68;34.34;100241.25;5082965;28;20146;-16
2023/07/11 07:49:32;;;;;;;9.50;5.68;;;;;;;30.72;35.13;100242.16;5084758;28;20034;-17
2023/07/11 07:51:58;;;;;;;8.63;5.10;;;;;;;30.74;35.21;100244.56;5084137;28;20016;-17
2023/07/11 07:54:26;;;;;;;7.50;4.93;;;;;;;30.73;34.77;100229.19;5079874;28;20036;-16
2023/07/11 07:56:51;;;;;;;9.98;5.05;;;;;;;30.68;34.54;100233.00;5084144;28;20021;-16
2023/07/11 07:59:17;;;;;;;10.18;5.28;;;;;;;30.70;35.15;100249.19;5083808;28;20085;-18
2023/07/11 08:01:42;;;;;;;8.85;5.03;;;;;;;30.76;35.00;100232.06;5084293;28;20446;-19
2023/07/11 08:04:07;;;;;;;10.05;5.20;;;;;;;30.81;35.34;100234.56;5083757;28;20417;-16
2023/07/11 08:06:33;;;;;;;11.27;6.70;;;;;;;31.10;34.32;100224.34;5083865;28;20434;-16
2023/07/11 08:08:58;;;;;;;7.20;5.55;;;;;;;31.31;33.97;100215.81;5083591;28;20020;-16
2023/07/11 08:11:24;;;;;;;7.88;5.05;;;;;;;31.56;33.59;100221.94;5080516;28;20168;-17
2023/07/11 08:13:50;;;;;;;7.88;5.35;;;;;;;31.57;33.27;100231.03;5083947;28;20028;-17
2023/07/11 08:16:16;;;;;;;10.88;6.35;;;;;;;31.66;34.17;100228.88;5083478;28;20057;-19
2023/07/11 08:18:41;;;;;;;10.57;5.80;;;;;;;31.64;33.24;100226.47;5084461;28;20451;-18
2023/07/11 08:21:09;;;;;;;10.10;5.97;;;;;;;31.77;33.12;100231.88;5083862;28;20024;-17
2023/07/11 08:23:34;;;;;;;8.32;5.45;;;;;;;31.83;32.15;100235.97;5083812;28;20535;-17
2023/07/11 08:26:00;;;;;;;8.75;5.15;;;;;;;31.96;32.87;100225.63;5083782;28;20024;-17
2023/07/11 08:28:25;;;;;;;8.98;6.18;;;;;;;31.99;32.16;100217.44;5083727;28;20054;-17
2023/07/11 08:30:51;;;;;;;7.30;5.60;;;;;;;31.95;31.84;100216.53;5083768;28;20115;-17
2023/07/11 08:33:18;;;;;;;9.45;5.47;;;;;;;31.95;33.00;100224.00;5083883;28;20366;-18
2023/07/11 08:35:44;;;;;;;9.98;5.53;;;;;;;32.12;32.90;100222.84;5083828;28;20024;-17
2023/07/11 08:38:12;;;;;;;14.38;5.60;;;;;;;32.45;32.75;100219.59;5083468;28;20393;-16
2023/07/11 08:40:43;;;;;;;8.13;4.97;;;;;;;32.47;32.06;100210.94;5081312;28;20044;-16
2023/07/11 08:43:30;;;;;;;9.90;5.05;;;;;;;32.76;32.14;100213.13;5081715;28;20024;-17
2023/07/11 08:46:07;;;;;;;8.38;5.00;;;;;;;33.07;33.19;100200.25;5086900;28;20038;-17
2023/07/11 08:48:41;;;;;;;7.30;5.43;;;;;;;33.01;31.41;100212.78;5087414;28;20032;-17
2023/07/11 08:51:22;;;;;;;7.85;5.30;;;;;;;32.97;31.79;100211.91;5087268;28;20740;-17
2023/07/11 08:53:57;;;;;;;8.13;4.82;;;;;;;32.98;31.85;100208.00;5084921;28;20033;-19
2023/07/11 08:56:36;;;;;;;10.45;5.38;;;;;;;32.92;30.62;100206.72;5066907;28;20032;-16
2023/07/11 08:59:06;;;;;;;9.27;4.78;;;;;;;32.85;31.11;100198.28;5075195;28;20028;-17
2023/07/11 09:02:10;;;;;;;6.05;4.80;;;;;;;33.05;30.65;100212.84;5087228;28;20104;-19
2023/07/11 09:04:46;;;;;;;12.85;4.95;;;;;;;32.78;30.26;100197.00;5071474;28;20077;-16
2023/07/11 09:07:36;;;;;;;6.65;4.68;;;;;;;32.82;31.08;100211.66;5086998;28;20020;-17
2023/07/11 09:10:10;;;;;;;8.07;4.97;;;;;;;33.26;29.75;100213.22;5086938;28;20056;-17
2023/07/11 09:12:46;;;;;;;9.65;4.80;;;;;;;33.30;30.41;100205.78;5086995;28;20027;-17
2023/07/11 09:15:22;;;;;;;8.80;4.50;;;;;;;33.61;30.42;100196.47;5086664;28;20744;-18
2023/07/11 09:18:10;;;;;;;8.43;4.90;;;;;;;33.81;29.26;100207.41;5086603;28;20024;-19
2023/07/11 09:20:48;;;;;;;9.60;4.82;;;;;;;33.62;29.67;100192.50;5086724;28;20237;-16
2023/07/11 09:23:42;;;;;;;7.03;4.78;;;;;;;33.53;29.04;100204.97;5085861;28;20489;-17
2023/07/11 09:26:16;;;;;;;8.25;4.60;;;;;;;33.51;29.24;100201.78;5084173;28;20123;-18
2023/07/11 09:28:42;;;;;;;9.63;5.63;;;;;;;33.83;29.49;100202.28;5086480;28;20054;-16
2023/07/11 09:31:17;;;;;;;7.80;4.68;;;;;;;33.40;27.88;100201.63;5085885;28;20036;-17
2023/07/11 09:33:51;;;;;;;6.97;4.57;;;;;;;33.82;28.25;100201.50;5083978;28;20024;-17
2023/07/11 09:36:24;;;;;;;7.38;4.80;;;;;;;33.88;26.86;100201.97;5082810;28;20749;-22
2023/07/11 09:38:56;;;;;;;7.57;4.43;;;;;;;33.87;26.90;100192.06;5082338;28;20106;-16
2023/07/11 09:41:41;;;;;;;8.38;4.35;;;;;;;34.12;27.17;100186.06;5085983;28;20032;-19
2023/07/11 09:44:11;;;;;;;9.48;4.95;;;;;;;34.38;27.70;100193.53;5083168;28;20024;-17
2023/07/11 09:46:36;;;;;;;6.75;4.32;;;;;;;34.68;27.76;100190.72;5085988;28;20020;-17
2023/07/11 09:49:04;;;;;;;6.82;4.38;;;;;;;34.74;27.79;100189.22;5086061;28;20031;-17
2023/07/11 09:51:42;;;;;;;9.77;4.78;;;;;;;34.49;27.40;100188.13;5086404;28;20387;-17
2023/07/11 09:54:18;;;;;;;7.65;4.72;;;;;;;34.37;27.56;100192.75;5086018;28;20021;-16
2023/07/11 09:56:49;;;;;;;8.93;4.68;;;;;;;34.77;27.74;100185.66;5085068;28;20031;-17
2023/07/11 09:59:16;;;;;;;8.27;4.55;;;;;;;34.93;27.84;100176.34;5085798;28;20028;-17
2023/07/11 10:01:41;;;;;;;9.55;4.75;;;;;;;34.42;27.64;100178.56;5083566;28;20131;-16
2023/07/11 10:04:12;;;;;;;10.77;5.18;;;;;;;34.54;27.33;100163.66;5085199;28;20119;-16
2023/07/11 10:06:42;;;;;;;6.88;4.45;;;;;;;34.57;28.53;100162.09;5085687;28;20027;-17
2023/07/11 10:09:29;;;;;;;9.32;5.07;;;;;;;34.81;28.01;100164.34;5085964;28;20118;-16
2023/07/11 10:12:03;;;;;;;9.60;5.10;;;;;;;34.94;28.12;100164.06;5085926;28;20035;-17
2023/07/11 10:14:35;;;;;;;6.43;4.40;;;;;;;35.04;27.05;100166.13;5085737;28;20040;-17
2023/07/11 10:17:18;;;;;;;7.47;5.03;;;;;;;34.83;26.58;100144.56;5085204;28;20028;-17
2023/07/11 10:19:50;;;;;;;7.88;4.90;;;;;;;35.10;26.91;100145.19;5082357;28;20157;-17
2023/07/11 10:22:19;;;;;;;6.97;5.00;;;;;;;35.44;26.72;100164.47;5085496;28;20024;-18
2023/07/11 10:24:45;;;;;;;7.95;5.20;;;;;;;35.59;27.93;100166.19;5085280;28;20201;-16
2023/07/11 10:27:14;;;;;;;6.32;5.07;;;;;;;35.76;27.62;100139.75;5085198;28;20040;-17
2023/07/11 10:29:48;;;;;;;9.57;5.07;;;;;;;35.61;27.26;100163.81;5082132;28;20048;-17
2023/07/11 10:32:35;;;;;;;12.13;5.78;;;;;;;35.39;26.09;100148.19;5083257;28;20546;-17
2023/07/11 10:35:05;;;;;;;7.03;5.03;;;;;;;35.46;27.71;100141.91;5064878;28;20035;-17
2023/07/11 10:37:40;;;;;;;7.10;4.80;;;;;;;35.34;28.21;100137.47;5064652;28;20021;-17
2023/07/11 10:40:27;;;;;;;8.48;5.15;;;;;;;35.58;27.99;100130.50;5065028;28;20031;-16
2023/07/11 10:43:29;;;;;;;8.30;5.00;;;;;;;35.94;27.00;100131.50;5082274;28;20556;-17
2023/07/11 10:46:02;;;;;;;6.50;4.60;;;;;;;35.47;26.61;100129.63;5085167;28;20760;-17
2023/07/11 10:48:33;;;;;;;9.88;5.30;;;;;;;35.82;26.05;100134.63;5085066;28;20024;-17
2023/07/11 10:51:09;;;;;;;6.20;4.78;;;;;;;35.59;27.42;100126.53;5083608;28;20523;-17
2023/07/11 10:53:50;;;;;;;7.97;4.38;;;;;;;35.46;27.36;100119.75;5084486;28;20026;-19
2023/07/11 10:56:21;;;;;;;7.88;4.90;;;;;;;35.74;26.58;100130.22;5084934;28;20461;-18
2023/07/11 10:58:48;;;;;;;7.35;5.13;;;;;;;35.86;26.29;100131.84;5084980;28;20373;-20
2023/07/11 11:01:43;;;;;;;8.30;4.93;;;;;;;36.12;27.15;100123.22;5083809;28;20055;-23
2023/07/11 11:04:58;;;;;;;9.23;4.90;;;;;;;36.11;26.54;100118.88;5080758;28;20127;-19
2023/07/11 11:07:26;;;;;;;7.95;5.07;;;;;;;36.11;26.82;100112.53;4982529;28;20032;-17
2023/07/11 11:09:56;;;;;;;8.00;4.95;;;;;;;35.99;27.35;100111.69;5064309;28;20572;-17
2023/07/11 11:12:28;;;;;;;6.70;4.88;;;;;;;36.14;27.80;100108.97;5083618;28;20050;-18
2023/07/11 11:15:13;;;;;;;9.52;4.63;;;;;;;36.35;26.79;100111.84;5085022;28;20119;-17
2023/07/11 11:18:10;;;;;;;6.90;4.93;;;;;;;36.43;25.87;100107.06;5033273;28;20103;-19
2023/07/11 11:20:55;;;;;;;8.98;5.10;;;;;;;36.43;26.69;100101.50;5082873;28;20028;-18
2023/07/11 11:23:39;;;;;;;7.55;5.35;;;;;;;36.11;26.04;100084.78;5082291;28;20016;-18
2023/07/11 11:26:25;;;;;;;8.98;5.03;;;;;;;36.25;26.12;100095.13;5084586;28;20036;-19
2023/07/11 11:28:59;;;;;;;7.25;5.07;;;;;;;36.10;27.68;100083.97;5084045;28;20044;-18
2023/07/11 11:31:31;;;;;;;8.38;4.93;;;;;;;36.16;26.94;100076.06;5084775;28;20070;-18